createdAt,value
2022-12-14T00:01:26.297Z,-3.90
2022-12-14T00:03:55.091Z,-3.90
2022-12-14T00:06:25.478Z,-3.80
2022-12-14T00:08:54.531Z,-3.90
2022-12-14T00:13:57.773Z,-4.00
2022-12-14T00:16:27.492Z,-3.90
2022-12-14T00:18:56.994Z,-4.00
2022-12-14T00:23:52.853Z,-4.00
2022-12-14T00:26:21.866Z,-4.00
2022-12-14T00:28:51.136Z,-4.00
2022-12-14T00:36:13.474Z,-4.00
2022-12-14T00:38:40.980Z,-4.00
2022-12-14T00:58:23.660Z,-4.00
2022-12-14T01:01:05.327Z,-4.00
2022-12-14T01:11:10.114Z,-4.00
2022-12-14T01:13:38.530Z,-4.00
2022-12-14T01:16:13.829Z,-4.00
2022-12-14T01:18:42.865Z,-4.00
2022-12-14T01:21:17.105Z,-4.00
2022-12-14T01:23:45.156Z,-4.00
2022-12-14T01:26:16.752Z,-4.10
2022-12-14T01:28:44.997Z,-4.00
2022-12-14T01:31:17.884Z,-4.00
2022-12-14T01:36:14.383Z,-4.10
2022-12-14T01:41:09.604Z,-4.00
2022-12-14T01:43:53.588Z,-2.50
2022-12-14T01:46:29.379Z,-4.00
2022-12-14T01:49:23.134Z,-4.00
2022-12-14T01:52:09.406Z,-4.00
2022-12-14T01:54:41.036Z,-4.10
2022-12-14T01:57:11.280Z,-4.00
2022-12-14T01:59:41.993Z,-4.10
2022-12-14T02:02:11.272Z,-4.10
2022-12-14T02:04:44.884Z,-4.10
2022-12-14T02:07:14.871Z,-4.10
2022-12-14T02:09:43.232Z,-4.10
2022-12-14T02:12:41.098Z,-4.10
2022-12-14T02:23:14.064Z,-4.10
2022-12-14T02:26:19.420Z,-4.00
2022-12-14T02:29:21.534Z,-4.00
2022-12-14T02:32:33.148Z,-4.00
2022-12-14T02:35:04.129Z,-4.00
2022-12-14T02:37:45.963Z,-4.00
2022-12-14T02:40:54.144Z,-4.00
2022-12-14T02:44:01.842Z,-4.00
2022-12-14T02:46:57.403Z,-4.00
2022-12-14T02:52:10.934Z,-4.00
2022-12-14T02:55:00.788Z,-3.90
2022-12-14T02:57:32.547Z,-3.90
2022-12-14T03:00:03.674Z,-3.90
2022-12-14T03:02:34.346Z,-3.90
2022-12-14T03:07:35.071Z,-3.90
2022-12-14T03:10:27.866Z,-3.90
2022-12-14T03:13:02.611Z,-3.80
2022-12-14T03:15:30.238Z,-3.90
2022-12-14T03:18:02.189Z,-3.90
2022-12-14T03:20:32.475Z,-3.90
2022-12-14T03:23:10.990Z,-3.90
2022-12-14T03:25:53.266Z,-3.90
2022-12-14T03:28:26.944Z,-3.90
2022-12-14T03:31:06.021Z,-3.90
2022-12-14T03:33:35.634Z,-3.90
2022-12-14T03:36:25.321Z,-3.90
2022-12-14T03:38:58.330Z,-3.80
2022-12-14T03:41:39.006Z,-3.80
2022-12-14T03:46:46.267Z,-3.80
2022-12-14T03:49:39.994Z,-3.80
2022-12-14T03:55:08.975Z,-3.80
2022-12-14T03:57:55.295Z,-3.80
2022-12-14T04:00:24.481Z,-3.70
2022-12-14T04:03:39.948Z,-3.70
2022-12-14T04:06:16.510Z,-3.80
2022-12-14T04:09:14.052Z,-3.80
2022-12-14T04:12:06.577Z,-3.70
2022-12-14T04:14:56.380Z,-3.70
2022-12-14T04:17:49.497Z,-3.70
2022-12-14T04:20:33.164Z,-3.70
2022-12-14T04:23:07.556Z,-3.70
2022-12-14T04:25:57.678Z,-3.70
2022-12-14T04:28:50.240Z,-3.70
2022-12-14T04:31:21.253Z,-3.70
2022-12-14T04:33:53.585Z,-3.70
2022-12-14T04:38:51.013Z,-3.60
2022-12-14T04:41:23.521Z,-3.60
2022-12-14T04:43:53.414Z,-3.60
2022-12-14T04:46:29.537Z,-3.60
2022-12-14T04:49:16.789Z,-3.60
2022-12-14T04:51:48.259Z,-3.60
2022-12-14T04:54:18.115Z,-3.60
2022-12-14T04:56:59.798Z,-3.60
2022-12-14T05:01:59.857Z,-3.60
2022-12-14T05:05:00.129Z,-3.60
2022-12-14T05:07:48.721Z,-3.60
2022-12-14T05:10:41.498Z,-3.60
2022-12-14T05:15:46.675Z,-3.60
2022-12-14T06:56:46.490Z,-3.50
2022-12-14T07:06:41.103Z,-3.40
2022-12-14T07:09:11.952Z,-3.40
2022-12-14T07:16:36.927Z,-3.30
2022-12-14T07:21:32.782Z,-3.30
2022-12-14T07:24:01.379Z,-3.30
2022-12-14T07:31:25.634Z,-3.20
2022-12-14T07:33:54.819Z,-3.30
2022-12-14T07:36:23.643Z,-3.30
2022-12-14T07:38:51.842Z,-3.30
2022-12-14T07:41:23.023Z,-3.30
2022-12-14T07:46:21.401Z,-3.20
2022-12-14T07:48:51.765Z,-3.20
2022-12-14T07:51:21.667Z,-3.20
2022-12-14T07:53:50.057Z,-3.20
2022-12-14T07:56:28.801Z,-3.20
2022-12-14T07:58:57.300Z,-3.20
2022-12-14T08:01:27.247Z,-3.20
2022-12-14T08:04:20.747Z,-3.10
2022-12-14T08:06:48.594Z,-3.20
2022-12-14T08:09:16.723Z,-3.20
2022-12-14T08:14:19.599Z,-3.10
2022-12-14T08:16:47.664Z,-3.20
2022-12-14T08:24:11.527Z,-3.10
2022-12-14T08:29:06.517Z,-3.10
2022-12-14T08:36:30.902Z,-3.10
2022-12-14T08:39:06.904Z,-3.10
2022-12-14T08:44:03.385Z,-3.00
2022-12-14T08:46:32.475Z,-3.00
2022-12-14T08:51:28.393Z,-3.00
2022-12-14T08:56:27.872Z,-3.00
2022-12-14T09:01:33.367Z,-2.90
2022-12-14T09:04:08.488Z,-2.90
2022-12-14T09:06:37.836Z,-2.80
2022-12-14T09:28:56.792Z,-2.70
2022-12-14T09:31:25.434Z,-2.70
2022-12-14T09:36:27.776Z,-2.70
2022-12-14T09:41:28.909Z,-2.60
2022-12-14T09:44:03.023Z,-2.60
2022-12-14T09:47:06.645Z,-2.70
2022-12-14T09:49:39.154Z,-2.60
2022-12-14T09:52:10.553Z,-2.60
2022-12-14T09:54:39.100Z,-2.60
2022-12-14T09:57:20.957Z,-2.50
2022-12-14T10:05:18.845Z,-2.50
2022-12-14T10:07:56.315Z,-2.50
2022-12-14T10:10:36.675Z,-2.40
2022-12-14T10:13:19.840Z,-2.40
2022-12-14T10:16:07.914Z,-2.40
2022-12-14T10:18:59.449Z,-2.40
2022-12-14T10:21:32.360Z,-2.40
2022-12-14T10:24:02.582Z,-2.40
2022-12-14T10:26:42.563Z,-2.40
2022-12-14T10:29:27.779Z,-2.40
2022-12-14T10:31:57.586Z,-2.30
2022-12-14T10:34:29.829Z,-2.30
2022-12-14T10:37:08.020Z,-2.30
2022-12-14T10:40:10.817Z,-2.20
2022-12-14T10:43:00.532Z,-2.20
2022-12-14T10:45:59.450Z,-2.10
2022-12-14T10:48:39.886Z,-2.10
2022-12-14T10:53:43.791Z,-2.00
2022-12-14T10:56:17.037Z,-2.00
2022-12-14T11:01:14.894Z,-2.00
2022-12-14T11:03:43.812Z,-2.00
2022-12-14T11:06:17.229Z,-1.90
2022-12-14T11:08:48.235Z,-1.90
2022-12-14T11:13:55.170Z,-1.90
2022-12-14T11:16:37.630Z,-2.00
2022-12-14T11:19:06.806Z,-2.00
2022-12-14T11:21:39.793Z,-2.00
2022-12-14T11:24:07.415Z,-2.00
2022-12-14T11:26:38.091Z,-2.00
2022-12-14T11:29:15.953Z,-2.00
2022-12-14T11:31:48.567Z,-2.00
2022-12-14T11:34:33.317Z,-2.00
2022-12-14T11:37:33.920Z,-2.00
2022-12-14T11:40:04.072Z,-1.90
2022-12-14T11:45:26.360Z,-2.00
2022-12-14T11:48:18.791Z,-2.00
2022-12-14T11:50:47.226Z,-2.10
2022-12-14T11:53:16.366Z,-2.00
2022-12-14T11:55:50.894Z,-2.00
2022-12-14T11:58:26.857Z,-2.00
2022-12-14T12:01:00.417Z,-2.00
2022-12-14T12:03:35.653Z,-2.00
2022-12-14T12:06:09.304Z,-2.00
2022-12-14T12:08:40.083Z,-2.00
2022-12-14T12:11:18.118Z,-2.00
2022-12-14T12:13:48.003Z,-2.10
2022-12-14T12:16:22.288Z,-2.00
2022-12-14T12:18:54.513Z,-2.00
2022-12-14T12:21:35.834Z,-2.10
2022-12-14T12:24:14.899Z,-2.10
2022-12-14T12:29:14.853Z,-2.20
2022-12-14T12:32:13.349Z,-2.10
2022-12-14T12:34:52.784Z,-2.10
2022-12-14T12:37:29.782Z,-2.10
2022-12-14T12:40:02.729Z,-2.10
2022-12-14T12:42:42.816Z,-2.10
2022-12-14T12:45:20.848Z,-2.10
2022-12-14T12:48:11.290Z,-2.00
2022-12-14T12:50:43.690Z,-2.10
2022-12-14T12:53:35.089Z,-2.10
2022-12-14T12:56:10.149Z,-2.00
2022-12-14T13:01:20.542Z,-2.00
2022-12-14T13:03:51.650Z,-1.90
2022-12-14T13:06:41.010Z,-1.90
2022-12-14T13:09:21.205Z,-1.90
2022-12-14T13:14:24.496Z,-1.90
2022-12-14T13:16:52.427Z,-1.80
2022-12-14T13:22:20.140Z,-1.80
2022-12-14T13:24:57.004Z,-1.90
2022-12-14T13:27:37.543Z,-1.90
2022-12-14T13:33:10.541Z,-1.90
2022-12-14T13:36:00.761Z,-1.90
2022-12-14T13:39:02.745Z,-1.90
2022-12-14T13:44:24.863Z,-1.90
2022-12-14T13:47:01.949Z,-2.00
2022-12-14T13:49:30.410Z,-2.00
2022-12-14T13:54:29.981Z,-2.00
2022-12-14T13:57:13.212Z,-1.90
2022-12-14T13:59:48.498Z,-1.90
2022-12-14T14:02:30.814Z,-1.90
2022-12-14T14:05:16.365Z,-1.90
2022-12-14T14:08:04.045Z,-1.90
2022-12-14T14:10:36.388Z,-1.90
2022-12-14T14:13:28.137Z,-1.90
2022-12-14T14:16:27.428Z,-1.80
2022-12-14T14:21:20.638Z,-1.80
2022-12-14T14:23:54.145Z,-1.80
2022-12-14T14:29:20.517Z,-1.80
2022-12-14T14:31:55.129Z,-1.80
2022-12-14T14:34:25.003Z,-1.80
2022-12-14T14:36:52.680Z,-1.80
2022-12-14T14:39:56.139Z,-1.70
2022-12-14T14:42:28.641Z,-1.80
2022-12-14T14:45:04.046Z,-1.80
2022-12-14T14:50:08.214Z,-1.90
2022-12-14T14:52:38.406Z,-1.90
2022-12-14T14:58:23.491Z,-1.90
2022-12-14T15:01:21.298Z,-1.90
2022-12-14T15:03:53.866Z,-1.90
2022-12-14T15:06:29.585Z,-1.90
2022-12-14T15:09:02.165Z,-1.90
2022-12-14T15:11:36.541Z,-2.00
2022-12-14T15:14:33.004Z,-1.90
2022-12-14T15:17:14.775Z,-1.90
2022-12-14T15:19:48.101Z,-1.90
2022-12-14T15:22:20.959Z,-1.90
2022-12-14T15:24:52.025Z,-1.90
2022-12-14T15:27:36.989Z,-2.00
2022-12-14T15:30:07.422Z,-2.00
2022-12-14T15:35:24.049Z,-2.00
2022-12-14T15:38:00.138Z,-2.00
2022-12-14T15:40:30.585Z,-2.00
2022-12-14T15:43:04.042Z,-2.00
2022-12-14T15:45:43.082Z,-1.90
2022-12-14T15:48:23.449Z,-1.90
2022-12-14T15:50:54.449Z,-1.90
2022-12-14T15:53:40.925Z,-1.90
2022-12-14T15:56:30.008Z,-1.90
2022-12-14T15:58:59.942Z,-1.80
2022-12-14T16:01:40.891Z,-1.80
2022-12-14T16:04:13.246Z,-1.80
2022-12-14T16:06:44.392Z,-1.70
2022-12-14T16:09:36.871Z,-1.80
2022-12-14T16:12:21.477Z,-1.80
2022-12-14T16:14:58.361Z,-1.80
2022-12-14T16:17:37.992Z,-1.80
2022-12-14T16:22:33.128Z,-1.80
2022-12-14T16:25:06.055Z,-1.80
2022-12-14T16:27:37.881Z,-1.80
2022-12-14T16:30:16.519Z,-1.80
2022-12-14T16:32:50.108Z,-1.80
2022-12-14T16:35:24.681Z,-1.80
2022-12-14T16:37:55.958Z,-1.80
2022-12-14T16:40:36.852Z,-1.80
2022-12-14T16:43:05.475Z,-1.80
2022-12-14T16:48:15.116Z,-1.80
2022-12-14T16:53:31.917Z,-1.80
2022-12-14T16:56:03.809Z,-1.80
2022-12-14T17:01:01.402Z,-1.80
2022-12-14T17:03:32.938Z,-1.80
2022-12-14T17:06:03.367Z,-1.80
2022-12-14T17:16:00.016Z,-1.90
2022-12-14T17:18:39.425Z,-1.80
2022-12-14T17:21:07.887Z,-1.80
2022-12-14T17:23:38.772Z,-1.80
2022-12-14T17:31:03.103Z,-1.80
2022-12-14T17:43:27.543Z,-1.70
2022-12-14T17:50:50.282Z,-1.80
2022-12-14T17:53:19.593Z,-1.80
2022-12-14T18:00:59.604Z,-1.80
2022-12-14T18:08:23.595Z,-1.80
2022-12-14T18:11:10.355Z,-1.80
2022-12-14T18:16:15.526Z,-1.80
2022-12-14T18:21:28.239Z,-1.80
2022-12-14T18:23:55.821Z,-1.80
2022-12-14T18:28:52.784Z,-1.70
2022-12-14T18:31:21.950Z,-1.60
2022-12-14T18:41:18.809Z,-1.80
2022-12-14T18:48:42.372Z,-1.80
2022-12-14T18:51:14.848Z,-1.80
2022-12-14T18:56:11.790Z,-1.80
2022-12-14T19:01:15.145Z,-1.80
2022-12-14T19:03:42.837Z,-1.80
2022-12-14T19:11:38.778Z,-1.90
2022-12-14T19:41:11.175Z,-1.60
2022-12-14T19:46:10.319Z,-1.70
2022-12-14T19:51:13.022Z,-1.70
2022-12-14T19:53:42.604Z,-1.70
2022-12-14T19:56:10.339Z,-1.60
2022-12-14T20:01:12.117Z,-1.60
2022-12-14T20:11:10.290Z,-1.70
2022-12-14T20:13:37.940Z,-1.70
2022-12-14T20:21:08.886Z,-1.70
2022-12-14T20:23:37.641Z,-1.70
2022-12-14T20:26:17.494Z,-1.80
2022-12-14T20:28:50.842Z,-1.70
2022-12-14T20:41:09.909Z,-1.80
2022-12-14T20:43:38.902Z,-1.70
2022-12-14T20:51:02.517Z,-1.70
2022-12-14T20:53:30.795Z,-1.60
2022-12-14T20:56:04.895Z,-1.70
2022-12-14T21:01:06.874Z,-1.70
2022-12-14T21:11:22.158Z,-1.60
2022-12-14T21:23:41.207Z,-1.50
2022-12-14T21:31:07.100Z,-1.50
2022-12-14T21:36:08.974Z,-1.60
2022-12-14T21:51:16.572Z,-1.80
2022-12-14T21:54:00.595Z,-1.70
2022-12-14T21:57:04.080Z,-1.60
2022-12-14T21:59:33.883Z,-1.60
2022-12-14T22:02:04.123Z,-1.50
2022-12-14T22:04:37.820Z,-1.60
2022-12-14T22:19:24.376Z,-1.70
2022-12-14T22:21:52.431Z,-1.70
2022-12-14T22:24:20.893Z,-1.70
2022-12-14T22:29:17.865Z,-1.70
2022-12-14T22:34:19.032Z,-1.60
2022-12-14T22:36:46.877Z,-1.60
2022-12-14T22:44:11.123Z,-1.50
2022-12-14T22:56:36.589Z,-1.60
2022-12-14T22:59:30.401Z,-1.60
2022-12-14T23:12:24.238Z,-1.50
2022-12-14T23:40:07.003Z,-1.60
